createdAt,value
2023-02-12T00:00:44.995Z,101855.88
2023-02-12T00:03:12.898Z,101848.25
2023-02-12T00:05:41.744Z,101844.78
2023-02-12T00:08:11.193Z,101847.91
2023-02-12T00:10:41.765Z,101848.97
2023-02-12T00:13:09.508Z,101840.50
2023-02-12T00:15:41.075Z,101834.66
2023-02-12T00:18:09.002Z,101836.34
2023-02-12T00:20:37.983Z,101836.94
2023-02-12T00:23:06.172Z,101837.53
2023-02-12T00:25:33.972Z,101831.94
2023-02-12T00:28:01.628Z,101841.44
2023-02-12T00:30:29.797Z,101842.13
2023-02-12T00:32:58.805Z,101837.53
2023-02-12T00:35:26.406Z,101840.38
2023-02-12T00:37:54.005Z,101836.63
2023-02-12T00:40:21.749Z,101839.09
2023-02-12T00:42:49.324Z,101838.25
2023-02-12T00:45:17.080Z,101839.16
2023-02-12T00:47:44.766Z,101838.16
2023-02-12T00:50:13.773Z,101845.34
2023-02-12T00:52:41.346Z,101848.75
2023-02-12T00:55:09.173Z,101836.69
2023-02-12T00:57:36.733Z,101838.66
2023-02-12T01:00:05.063Z,101843.56
2023-02-12T01:02:32.688Z,101851.19
2023-02-12T01:05:00.445Z,101841.63
2023-02-12T01:07:29.396Z,101848.91
2023-02-12T01:09:57.003Z,101854.50
2023-02-12T01:12:24.610Z,101855.16
2023-02-12T01:14:52.406Z,101852.91
2023-02-12T01:17:20.028Z,101856.19
2023-02-12T01:19:47.622Z,101853.50
2023-02-12T01:22:15.441Z,101868.31
2023-02-12T01:24:44.337Z,101853.16
2023-02-12T01:27:11.861Z,101855.00
2023-02-12T01:29:39.793Z,101857.47
2023-02-12T01:32:07.446Z,101862.41
2023-02-12T01:34:35.140Z,101858.94
2023-02-12T01:37:02.736Z,101848.50
2023-02-12T01:39:30.334Z,101844.19
2023-02-12T01:41:59.233Z,101852.66
2023-02-12T01:44:31.260Z,101847.28
2023-02-12T01:47:00.393Z,101854.25
2023-02-12T01:49:32.789Z,101842.22
2023-02-12T01:52:06.301Z,101843.84
2023-02-12T01:54:35.953Z,101838.41
2023-02-12T01:57:07.212Z,101838.25
2023-02-12T01:59:37.396Z,101844.44
2023-02-12T02:02:05.985Z,101843.31
2023-02-12T02:04:41.225Z,101843.59
2023-02-12T02:07:10.912Z,101849.25
2023-02-12T02:09:40.257Z,101847.41
2023-02-12T02:12:27.197Z,101841.97
2023-02-12T02:14:58.977Z,101842.31
2023-02-12T02:17:48.004Z,101833.16
2023-02-12T02:20:51.387Z,101836.53
2023-02-12T02:23:48.715Z,101842.16
2023-02-12T02:26:43.430Z,101838.59
2023-02-12T02:29:55.370Z,101834.16
2023-02-12T02:32:27.850Z,101838.66
2023-02-12T02:35:01.870Z,101836.13
2023-02-12T02:37:34.029Z,101836.03
2023-02-12T02:40:10.686Z,101834.94
2023-02-12T02:42:43.079Z,101830.97
2023-02-12T02:45:16.477Z,101830.03
2023-02-12T02:47:49.839Z,101828.84
2023-02-12T02:50:21.012Z,101826.56
2023-02-12T02:52:54.266Z,101829.75
2023-02-12T02:55:25.328Z,101827.97
2023-02-12T02:57:57.412Z,101832.22
2023-02-12T03:00:29.575Z,101831.06
2023-02-12T03:03:03.232Z,101823.84
2023-02-12T03:05:34.503Z,101823.94
2023-02-12T03:08:09.671Z,101823.66
2023-02-12T03:10:41.744Z,101825.69
2023-02-12T03:13:13.239Z,101829.59
2023-02-12T03:15:45.963Z,101826.16
2023-02-12T03:18:20.698Z,101827.56
2023-02-12T03:20:52.989Z,101815.88
2023-02-12T03:23:26.481Z,101829.94
2023-02-12T03:25:58.981Z,101835.34
2023-02-12T03:28:30.834Z,101826.81
2023-02-12T03:31:09.197Z,101825.34
2023-02-12T03:33:50.917Z,101826.31
2023-02-12T03:36:30.758Z,101831.78
2023-02-12T03:39:07.147Z,101827.75
2023-02-12T03:41:41.553Z,101827.03
2023-02-12T03:44:17.488Z,101830.59
2023-02-12T03:46:51.797Z,101832.22
2023-02-12T03:49:25.564Z,101822.66
2023-02-12T03:51:53.901Z,101827.03
2023-02-12T03:54:23.050Z,101820.94
2023-02-12T03:56:55.183Z,101828.31
2023-02-12T03:59:25.141Z,101834.66
2023-02-12T04:01:54.960Z,101832.88
2023-02-12T04:04:25.015Z,101832.53
2023-02-12T04:06:54.794Z,101829.94
2023-02-12T04:09:24.191Z,101827.88
2023-02-12T04:12:05.980Z,101832.38
2023-02-12T04:14:42.180Z,101839.06
2023-02-12T04:17:18.642Z,101842.59
2023-02-12T04:19:55.865Z,101839.22
2023-02-12T04:22:33.904Z,101842.94
2023-02-12T04:25:10.856Z,101852.69
2023-02-12T04:27:43.657Z,101846.47
2023-02-12T04:30:19.037Z,101852.75
2023-02-12T04:32:50.278Z,101853.53
2023-02-12T04:35:23.798Z,101854.28
2023-02-12T04:37:56.243Z,101860.69
2023-02-12T04:40:24.490Z,101851.72
2023-02-12T04:42:54.317Z,101856.91
2023-02-12T04:45:25.166Z,101857.75
2023-02-12T04:47:53.074Z,101855.78
2023-02-12T04:50:22.450Z,101858.56
2023-02-12T04:52:50.198Z,101861.78
2023-02-12T04:55:17.970Z,101862.72
2023-02-12T04:57:45.755Z,101865.34
2023-02-12T05:00:15.809Z,101860.53
2023-02-12T05:02:43.460Z,101863.06
2023-02-12T05:05:11.141Z,101858.66
2023-02-12T05:07:40.215Z,101854.13
2023-02-12T05:10:09.611Z,101850.72
2023-02-12T05:12:37.168Z,101846.31
2023-02-12T05:15:05.460Z,101840.16
2023-02-12T05:17:33.225Z,101841.84
2023-02-12T05:20:00.810Z,101839.97
2023-02-12T05:22:28.483Z,101840.47
2023-02-12T05:24:57.375Z,101840.81
2023-02-12T05:27:24.914Z,101844.81
2023-02-12T05:29:52.490Z,101845.06
2023-02-12T05:32:20.113Z,101851.16
2023-02-12T05:34:47.819Z,101850.00
2023-02-12T05:37:15.619Z,101847.31
2023-02-12T05:39:43.226Z,101847.13
2023-02-12T05:42:12.206Z,101852.22
2023-02-12T05:44:39.857Z,101856.38
2023-02-12T05:47:07.368Z,101853.16
2023-02-12T05:49:34.942Z,101851.06
2023-02-12T05:52:02.491Z,101857.22
2023-02-12T05:54:30.026Z,101857.06
2023-02-12T05:56:57.555Z,101858.38
2023-02-12T05:59:26.476Z,101856.63
2023-02-12T06:01:54.418Z,101855.63
2023-02-12T06:04:23.975Z,101851.06
2023-02-12T06:06:52.311Z,101855.91
2023-02-12T06:09:20.210Z,101856.91
2023-02-12T06:11:47.895Z,101854.03
2023-02-12T06:14:17.229Z,101856.56
2023-02-12T06:16:48.321Z,101856.31
2023-02-12T06:19:16.256Z,101845.16
2023-02-12T06:21:43.990Z,101849.22
2023-02-12T06:24:13.598Z,101848.38
2023-02-12T06:26:41.396Z,101853.19
2023-02-12T06:29:08.984Z,101857.34
2023-02-12T06:31:38.258Z,101856.31
2023-02-12T06:34:17.957Z,101865.16
2023-02-12T06:36:47.021Z,101868.44
2023-02-12T06:39:17.307Z,101868.84
2023-02-12T06:41:45.459Z,101872.56
2023-02-12T06:44:14.012Z,101874.41
2023-02-12T06:46:41.793Z,101878.91
2023-02-12T06:49:14.158Z,101881.03
2023-02-12T06:51:42.370Z,101881.50
2023-02-12T06:54:14.736Z,101879.13
2023-02-12T06:56:42.268Z,101883.28
2023-02-12T06:59:14.043Z,101885.31
2023-02-12T07:01:41.909Z,101884.97
2023-02-12T07:04:12.357Z,101892.94
2023-02-12T07:06:40.167Z,101890.81
2023-02-12T07:09:07.768Z,101895.00
2023-02-12T07:11:38.343Z,101895.59
2023-02-12T07:14:06.499Z,101892.19
2023-02-12T07:16:34.193Z,101898.03
2023-02-12T07:19:01.916Z,101897.97
2023-02-12T07:21:31.948Z,101899.91
2023-02-12T07:23:59.544Z,101900.16
2023-02-12T07:26:27.092Z,101904.28
2023-02-12T07:28:54.637Z,101907.53
2023-02-12T07:31:24.349Z,101909.56
2023-02-12T07:33:55.224Z,101907.19
2023-02-12T07:36:23.172Z,101905.56
2023-02-12T07:38:52.143Z,101903.03
2023-02-12T07:41:21.394Z,101907.03
2023-02-12T07:43:50.616Z,101906.34
2023-02-12T07:46:21.686Z,101909.75
2023-02-12T07:48:49.686Z,101910.41
2023-02-12T07:51:19.171Z,101912.31
2023-02-12T07:53:46.924Z,101916.72
2023-02-12T07:56:18.131Z,101915.41
2023-02-12T07:58:47.168Z,101921.03
2023-02-12T08:01:18.205Z,101915.50
2023-02-12T08:03:47.023Z,101908.03
2023-02-12T08:06:16.732Z,101918.91
2023-02-12T08:08:44.774Z,101909.66
2023-02-12T08:11:14.249Z,101907.44
2023-02-12T08:13:43.585Z,101914.34
2023-02-12T08:16:13.273Z,101919.06
2023-02-12T08:18:40.933Z,101917.38
2023-02-12T08:21:09.859Z,101920.88
2023-02-12T08:23:38.130Z,101924.44
2023-02-12T08:26:11.437Z,101923.53
2023-02-12T08:28:41.000Z,101922.50
2023-02-12T08:31:12.195Z,101933.00
2023-02-12T08:33:39.801Z,101926.53
2023-02-12T08:36:10.397Z,101936.13
2023-02-12T08:38:38.890Z,101936.47
2023-02-12T08:41:07.879Z,101935.09
2023-02-12T08:43:36.008Z,101938.94
2023-02-12T08:46:05.336Z,101937.06
2023-02-12T08:48:34.464Z,101934.22
2023-02-12T08:51:06.994Z,101933.00
2023-02-12T08:53:34.953Z,101936.31
2023-02-12T08:56:02.622Z,101942.78
2023-02-12T08:58:30.310Z,101948.53
2023-02-12T09:00:57.976Z,101935.84
2023-02-12T09:03:25.971Z,101938.19
2023-02-12T09:05:55.257Z,101933.44
2023-02-12T09:08:23.028Z,101940.63
2023-02-12T09:10:50.578Z,101937.66
2023-02-12T09:13:18.323Z,101938.88
2023-02-12T09:15:46.316Z,101946.06
2023-02-12T09:18:15.886Z,101946.38
2023-02-12T09:20:45.519Z,101948.63
2023-02-12T09:23:15.492Z,101952.28
2023-02-12T09:25:44.574Z,101951.25
2023-02-12T09:28:13.578Z,101944.91
2023-02-12T09:30:42.081Z,101949.28
2023-02-12T09:33:12.292Z,101955.47
2023-02-12T09:35:40.429Z,101946.84
2023-02-12T09:38:09.291Z,101942.34
2023-02-12T09:40:48.326Z,101945.84
2023-02-12T09:43:19.634Z,101949.31
2023-02-12T09:45:57.786Z,101954.81
2023-02-12T09:48:55.431Z,101957.47
2023-02-12T09:51:23.816Z,101954.72
2023-02-12T09:54:00.553Z,101957.72
2023-02-12T09:56:29.556Z,101959.34
2023-02-12T09:59:00.528Z,101960.44
2023-02-12T10:01:28.975Z,101957.78
2023-02-12T10:03:57.540Z,101965.06
2023-02-12T10:06:27.774Z,101955.63
2023-02-12T10:09:02.208Z,101951.59
2023-02-12T10:11:54.722Z,101956.22
2023-02-12T10:14:58.696Z,101950.03
2023-02-12T10:17:36.896Z,101960.50
2023-02-12T10:20:32.728Z,101952.59
2023-02-12T10:23:11.255Z,101954.78
2023-02-12T10:25:48.640Z,101952.28
2023-02-12T10:28:21.591Z,101947.13
2023-02-12T10:30:53.908Z,101946.09
2023-02-12T10:33:28.098Z,101943.16
2023-02-12T10:36:00.275Z,101949.09
2023-02-12T10:38:32.417Z,101944.56
2023-02-12T10:41:01.854Z,101937.66
2023-02-12T10:43:31.937Z,101940.56
2023-02-12T10:45:59.582Z,101934.94
2023-02-12T10:48:32.539Z,101937.47
2023-02-12T10:51:13.923Z,101938.56
2023-02-12T10:53:43.522Z,101934.75
2023-02-12T10:56:17.674Z,101929.91
2023-02-12T10:58:57.529Z,101923.72
2023-02-12T11:01:28.069Z,101921.78
2023-02-12T11:03:56.868Z,101921.44
2023-02-12T11:06:27.681Z,101923.06
2023-02-12T11:08:56.300Z,101919.56
2023-02-12T11:11:26.445Z,101924.13
2023-02-12T11:14:03.794Z,101921.56
2023-02-12T11:16:34.052Z,101909.34
2023-02-12T11:19:05.707Z,101911.44
2023-02-12T11:21:34.022Z,101914.28
2023-02-12T11:24:23.914Z,101905.44
2023-02-12T11:26:51.480Z,101911.31
2023-02-12T11:29:24.477Z,101899.72
2023-02-12T11:32:03.702Z,101896.84
2023-02-12T11:34:31.813Z,101899.63
2023-02-12T11:36:59.995Z,101894.00
2023-02-12T11:39:29.865Z,101899.41
2023-02-12T11:42:00.420Z,101886.16
2023-02-12T11:44:33.311Z,101892.75
2023-02-12T11:47:08.708Z,101886.06
2023-02-12T11:49:42.204Z,101888.06
2023-02-12T11:52:21.524Z,101883.63
2023-02-12T11:54:51.413Z,101881.91
2023-02-12T11:57:38.641Z,101872.38
2023-02-12T12:00:15.253Z,101872.50
2023-02-12T12:02:47.847Z,101871.97
2023-02-12T12:05:19.409Z,101863.53
2023-02-12T12:07:57.142Z,101865.50
2023-02-12T12:10:35.503Z,101866.72
2023-02-12T12:13:06.644Z,101865.22
2023-02-12T12:15:56.915Z,101874.31
2023-02-12T12:18:48.949Z,101871.81
2023-02-12T12:21:25.756Z,101866.66
2023-02-12T12:23:58.069Z,101864.59
2023-02-12T12:26:28.707Z,101863.75
2023-02-12T12:29:02.852Z,101855.66
2023-02-12T12:31:35.778Z,101852.72
2023-02-12T12:34:08.656Z,101844.91
2023-02-12T12:37:03.252Z,101848.81
2023-02-12T12:39:37.960Z,101845.00
2023-02-12T12:42:45.577Z,101838.19
2023-02-12T12:45:30.384Z,101852.06
2023-02-12T12:48:16.168Z,101839.19
2023-02-12T12:51:01.381Z,101843.28
2023-02-12T12:53:43.538Z,101842.25
2023-02-12T12:56:35.155Z,101834.88
2023-02-12T12:59:36.812Z,101828.81
2023-02-12T13:02:38.204Z,101828.81
2023-02-12T13:05:57.996Z,101823.06
2023-02-12T13:08:53.178Z,101827.91
2023-02-12T13:11:36.522Z,101818.31
2023-02-12T13:14:15.729Z,101831.78
2023-02-12T13:16:50.672Z,101823.56
2023-02-12T13:19:33.755Z,101819.13
2023-02-12T13:22:08.853Z,101814.97
2023-02-12T13:24:43.559Z,101814.28
2023-02-12T13:27:16.376Z,101808.41
2023-02-12T13:29:47.581Z,101810.25
2023-02-12T13:32:23.094Z,101813.50
2023-02-12T13:34:54.456Z,101811.03
2023-02-12T13:37:35.226Z,101813.34
2023-02-12T13:40:05.791Z,101807.75
2023-02-12T13:42:44.465Z,101811.72
2023-02-12T13:45:28.080Z,101805.19
2023-02-12T13:48:07.308Z,101802.66
2023-02-12T13:50:42.939Z,101800.66
2023-02-12T13:53:21.503Z,101801.50
2023-02-12T13:56:06.691Z,101796.84
2023-02-12T13:58:48.156Z,101799.13
2023-02-12T14:01:37.590Z,101791.00
2023-02-12T14:04:33.208Z,101788.81
2023-02-12T14:07:05.027Z,101790.28
2023-02-12T14:09:38.711Z,101789.75
2023-02-12T14:12:08.315Z,101781.44
2023-02-12T14:14:38.592Z,101781.78
2023-02-12T14:17:53.852Z,101770.13
2023-02-12T14:20:27.534Z,101778.69
2023-02-12T14:23:20.112Z,101775.28
2023-02-12T14:25:57.670Z,101769.84
2023-02-12T14:28:30.911Z,101769.84
2023-02-12T14:31:30.051Z,101762.75
2023-02-12T14:34:31.000Z,101765.19
2023-02-12T14:37:13.620Z,101764.09
2023-02-12T14:39:41.255Z,101762.75
2023-02-12T14:42:55.568Z,101756.44
2023-02-12T14:45:34.952Z,101757.38
2023-02-12T14:48:03.777Z,101751.69
2023-02-12T14:50:39.445Z,101749.50
2023-02-12T14:53:28.995Z,101759.78
2023-02-12T14:55:58.264Z,101753.06
2023-02-12T14:58:30.668Z,101745.09
2023-02-12T15:01:01.211Z,101745.66
2023-02-12T15:03:35.911Z,101743.44
2023-02-12T15:06:08.684Z,101742.47
2023-02-12T15:08:44.362Z,101741.97
2023-02-12T15:11:25.965Z,101731.91
2023-02-12T15:13:58.672Z,101739.81
2023-02-12T15:16:35.503Z,101740.53
2023-02-12T15:19:13.365Z,101740.34
2023-02-12T15:21:41.951Z,101741.25
2023-02-12T15:24:11.427Z,101740.63
2023-02-12T15:26:42.684Z,101751.97
2023-02-12T15:29:22.383Z,101745.94
2023-02-12T15:31:55.993Z,101745.53
2023-02-12T15:34:26.319Z,101744.84
2023-02-12T15:36:56.200Z,101742.13
2023-02-12T15:39:25.806Z,101740.19
2023-02-12T15:41:53.439Z,101735.06
2023-02-12T15:44:29.527Z,101741.78
2023-02-12T15:47:03.998Z,101740.03
2023-02-12T15:49:35.238Z,101745.00
2023-02-12T15:52:06.036Z,101748.97
2023-02-12T15:54:34.033Z,101747.53
2023-02-12T15:57:02.852Z,101744.19
2023-02-12T15:59:31.850Z,101737.66
2023-02-12T16:02:03.257Z,101745.47
2023-02-12T16:04:33.589Z,101744.63
2023-02-12T16:07:02.430Z,101739.50
2023-02-12T16:09:32.682Z,101738.34
2023-02-12T16:12:03.197Z,101734.88
2023-02-12T16:14:40.837Z,101730.78
2023-02-12T16:17:22.105Z,101742.19
2023-02-12T16:19:58.005Z,101737.88
2023-02-12T16:22:29.657Z,101737.19
2023-02-12T16:24:57.802Z,101737.06
2023-02-12T16:27:28.343Z,101733.97
2023-02-12T16:29:59.464Z,101732.88
2023-02-12T16:32:38.326Z,101738.63
2023-02-12T16:35:25.135Z,101743.19
2023-02-12T16:37:56.319Z,101749.00
2023-02-12T16:40:30.940Z,101752.59
2023-02-12T16:43:04.176Z,101744.56
2023-02-12T16:45:38.664Z,101747.94
2023-02-12T16:48:17.212Z,101759.44
2023-02-12T16:50:49.183Z,101754.88
2023-02-12T16:53:34.343Z,101747.78
2023-02-12T16:56:04.787Z,101761.56
2023-02-12T16:58:32.565Z,101756.13
2023-02-12T17:01:04.345Z,101755.31
2023-02-12T17:03:32.497Z,101756.88
2023-02-12T17:06:00.258Z,101757.25
2023-02-12T17:08:27.827Z,101765.41
2023-02-12T17:10:55.357Z,101760.69
2023-02-12T17:13:22.956Z,101760.06
2023-02-12T17:15:55.340Z,101772.69
2023-02-12T17:18:25.180Z,101769.97
2023-02-12T17:20:55.886Z,101783.97
2023-02-12T17:23:24.613Z,101784.56
2023-02-12T17:25:52.489Z,101786.63
2023-02-12T17:28:20.878Z,101783.53
2023-02-12T17:30:48.490Z,101790.94
2023-02-12T17:33:17.067Z,101782.84
2023-02-12T17:35:46.387Z,101789.47
2023-02-12T17:38:14.146Z,101795.88
2023-02-12T17:40:41.779Z,101784.47
2023-02-12T17:43:09.559Z,101789.81
2023-02-12T17:45:42.711Z,101796.88
2023-02-12T17:48:10.523Z,101793.16
2023-02-12T17:50:38.501Z,101804.81
2023-02-12T17:53:07.963Z,101803.50
2023-02-12T17:55:39.506Z,101803.44
2023-02-12T17:58:08.199Z,101802.66
2023-02-12T18:00:35.835Z,101805.03
2023-02-12T18:03:03.439Z,101802.56
2023-02-12T18:05:31.016Z,101807.44
2023-02-12T18:07:58.653Z,101813.50
2023-02-12T18:10:27.602Z,101811.66
2023-02-12T18:12:55.230Z,101801.50
2023-02-12T18:15:23.517Z,101809.59
2023-02-12T18:17:51.190Z,101814.00
2023-02-12T18:20:19.170Z,101820.44
2023-02-12T18:22:47.295Z,101817.00
2023-02-12T18:25:15.102Z,101815.03
2023-02-12T18:27:44.254Z,101814.19
2023-02-12T18:30:12.686Z,101814.78
2023-02-12T18:32:40.273Z,101822.38
2023-02-12T18:35:09.137Z,101820.28
2023-02-12T18:37:36.965Z,101808.47
2023-02-12T18:40:04.881Z,101803.47
2023-02-12T18:42:33.266Z,101807.38
2023-02-12T18:45:02.299Z,101805.00
2023-02-12T18:47:29.932Z,101806.38
2023-02-12T18:49:58.170Z,101803.34
2023-02-12T18:52:26.148Z,101798.25
2023-02-12T18:54:53.760Z,101794.69
2023-02-12T18:57:21.513Z,101805.00
2023-02-12T18:59:49.171Z,101799.13
2023-02-12T19:02:18.390Z,101791.25
2023-02-12T19:04:46.012Z,101799.38
2023-02-12T19:07:13.654Z,101794.69
2023-02-12T19:09:41.587Z,101800.03
2023-02-12T19:12:09.234Z,101800.19
2023-02-12T19:14:36.911Z,101803.69
2023-02-12T19:17:04.702Z,101801.06
2023-02-12T19:19:34.003Z,101793.84
2023-02-12T19:22:01.736Z,101803.03
2023-02-12T19:24:44.392Z,101806.13
2023-02-12T19:27:13.744Z,101796.16
2023-02-12T19:29:41.427Z,101793.84
2023-02-12T19:32:09.221Z,101795.69
2023-02-12T19:34:38.765Z,101795.09
2023-02-12T19:37:08.255Z,101799.63
2023-02-12T19:39:36.331Z,101807.69
2023-02-12T19:42:04.055Z,101806.13
2023-02-12T19:44:31.800Z,101809.19
2023-02-12T19:46:59.523Z,101810.91
2023-02-12T19:49:28.681Z,101811.16
2023-02-12T19:51:57.779Z,101811.53
2023-02-12T19:54:26.050Z,101815.50
2023-02-12T19:56:55.182Z,101819.03
2023-02-12T19:59:25.267Z,101814.09
2023-02-12T20:01:53.093Z,101810.72
2023-02-12T20:04:22.793Z,101817.66
2023-02-12T20:06:50.833Z,101818.03
2023-02-12T20:09:21.438Z,101822.88
2023-02-12T20:11:50.099Z,101817.25
2023-02-12T20:14:20.754Z,101815.81
2023-02-12T20:16:48.399Z,101816.72
2023-02-12T20:19:18.821Z,101816.22
2023-02-12T20:21:48.904Z,101812.75
2023-02-12T20:24:16.730Z,101811.22
2023-02-12T20:26:45.875Z,101808.31
2023-02-12T20:29:13.672Z,101815.41
2023-02-12T20:31:41.441Z,101816.09
2023-02-12T20:34:12.734Z,101811.09
2023-02-12T20:36:43.197Z,101811.41
2023-02-12T20:39:13.389Z,101819.13
2023-02-12T20:41:42.280Z,101810.94
2023-02-12T20:44:14.357Z,101818.34
2023-02-12T20:46:42.579Z,101815.13
2023-02-12T20:49:12.977Z,101817.59
2023-02-12T20:51:41.010Z,101824.16
2023-02-12T20:54:08.636Z,101819.44
2023-02-12T20:56:38.645Z,101818.63
2023-02-12T20:59:07.556Z,101821.63
2023-02-12T21:01:38.568Z,101815.59
2023-02-12T21:04:08.578Z,101817.28
2023-02-12T21:06:36.663Z,101818.22
2023-02-12T21:09:04.531Z,101812.81
2023-02-12T21:11:32.195Z,101820.97
2023-02-12T21:14:20.794Z,101820.22
2023-02-12T21:16:49.659Z,101819.97
2023-02-12T21:19:18.162Z,101822.22
2023-02-12T21:21:46.046Z,101824.66
2023-02-12T21:24:16.331Z,101817.72
2023-02-12T21:26:44.361Z,101816.50
2023-02-12T21:29:12.128Z,101814.25
2023-02-12T21:31:42.038Z,101820.59
2023-02-12T21:34:15.224Z,101819.38
2023-02-12T21:36:44.996Z,101820.81
2023-02-12T21:39:14.143Z,101821.19
2023-02-12T21:41:43.942Z,101823.44
2023-02-12T21:44:14.600Z,101834.50
2023-02-12T21:46:42.907Z,101825.97
2023-02-12T21:49:12.810Z,101814.38
2023-02-12T21:51:42.301Z,101830.16
2023-02-12T21:54:12.371Z,101824.41
2023-02-12T21:56:41.437Z,101826.13
2023-02-12T21:59:09.996Z,101838.13
2023-02-12T22:01:42.276Z,101842.09
2023-02-12T22:04:10.708Z,101842.09
2023-02-12T22:06:42.624Z,101838.16
2023-02-12T22:09:12.179Z,101840.94
2023-02-12T22:11:41.381Z,101836.88
2023-02-12T22:14:09.918Z,101841.81
2023-02-12T22:16:38.887Z,101842.06
2023-02-12T22:19:06.559Z,101844.53
2023-02-12T22:21:37.217Z,101836.41
2023-02-12T22:24:09.283Z,101837.06
2023-02-12T22:26:37.442Z,101836.16
2023-02-12T22:29:09.150Z,101833.34
2023-02-12T22:31:39.173Z,101833.63
2023-02-12T22:34:09.084Z,101833.81
2023-02-12T22:36:38.529Z,101847.81
2023-02-12T22:39:07.730Z,101836.94
2023-02-12T22:41:35.905Z,101842.13
2023-02-12T22:44:05.034Z,101843.59
2023-02-12T22:46:33.156Z,101834.75
2023-02-12T22:49:01.281Z,101838.72
2023-02-12T22:51:30.976Z,101838.00
2023-02-12T22:53:59.447Z,101837.16
2023-02-12T22:56:28.470Z,101831.56
2023-02-12T22:58:57.048Z,101843.72
2023-02-12T23:01:25.071Z,101846.34
2023-02-12T23:03:53.014Z,101837.78
2023-02-12T23:06:23.156Z,101843.66
2023-02-12T23:08:51.879Z,101841.78
2023-02-12T23:11:19.921Z,101844.63
2023-02-12T23:13:48.903Z,101846.50
2023-02-12T23:16:16.563Z,101845.19
2023-02-12T23:18:44.232Z,101843.72
2023-02-12T23:21:12.111Z,101850.06
2023-02-12T23:23:39.748Z,101844.63
2023-02-12T23:26:07.661Z,101849.03
2023-02-12T23:28:35.509Z,101848.50
2023-02-12T23:31:04.619Z,101850.66
2023-02-12T23:33:32.345Z,101850.66
2023-02-12T23:36:00.216Z,101844.44
2023-02-12T23:38:27.822Z,101837.22
2023-02-12T23:40:55.643Z,101843.34
2023-02-12T23:43:23.482Z,101843.63
2023-02-12T23:45:51.036Z,101841.84
2023-02-12T23:48:20.063Z,101839.03
2023-02-12T23:50:49.800Z,101840.69
2023-02-12T23:53:18.969Z,101847.72
2023-02-12T23:55:46.823Z,101839.88
2023-02-12T23:58:14.348Z,101832.19
